createdAt,value
2023-05-10T00:01:55.633Z,51.28
2023-05-10T00:04:23.753Z,51.48
2023-05-10T00:06:51.775Z,51.85
2023-05-10T00:09:21.281Z,51.92
2023-05-10T00:11:49.273Z,51.80
2023-05-10T00:14:17.312Z,51.06
2023-05-10T00:16:45.368Z,51.33
2023-05-10T00:19:14.431Z,51.57
2023-05-10T00:21:42.476Z,51.83
2023-05-10T00:24:10.530Z,50.99
2023-05-10T00:26:39.889Z,51.72
2023-05-10T00:29:07.852Z,52.25
2023-05-10T00:31:36.007Z,52.36
2023-05-10T00:34:03.993Z,52.80
2023-05-10T00:36:32.367Z,53.04
2023-05-10T00:39:00.542Z,53.36
2023-05-10T00:41:28.559Z,53.39
2023-05-10T00:43:57.940Z,53.66
2023-05-10T00:46:26.520Z,53.67
2023-05-10T00:48:54.896Z,53.68
2023-05-10T00:51:23.092Z,52.95
2023-05-10T00:53:52.592Z,53.38
2023-05-10T00:56:21.678Z,53.23
2023-05-10T00:58:49.682Z,53.41
2023-05-10T01:01:19.182Z,52.56
2023-05-10T01:03:47.981Z,52.80
2023-05-10T01:06:16.029Z,52.86
2023-05-10T01:08:44.368Z,52.04
2023-05-10T01:11:15.514Z,52.63
2023-05-10T01:13:59.787Z,52.71
2023-05-10T01:17:12.859Z,52.62
2023-05-10T01:19:54.369Z,52.28
2023-05-10T01:23:25.941Z,52.50
2023-05-10T01:26:15.813Z,52.95
2023-05-10T01:39:22.246Z,52.76
2023-05-10T01:41:56.947Z,52.04
2023-05-10T01:44:33.708Z,52.45
2023-05-10T01:47:08.311Z,53.07
2023-05-10T01:49:42.460Z,53.77
2023-05-10T01:52:15.002Z,54.25
2023-05-10T01:54:46.959Z,55.62
2023-05-10T01:57:17.652Z,55.19
2023-05-10T01:59:51.453Z,55.11
2023-05-10T02:02:21.251Z,54.86
2023-05-10T02:04:51.771Z,54.84
2023-05-10T02:07:22.366Z,55.17
2023-05-10T02:09:50.514Z,55.90
2023-05-10T02:12:20.237Z,56.17
2023-05-10T02:14:49.930Z,56.24
2023-05-10T02:17:18.908Z,55.82
2023-05-10T02:19:49.227Z,56.26
2023-05-10T02:22:18.835Z,56.57
2023-05-10T02:24:49.847Z,56.68
2023-05-10T02:27:19.590Z,56.64
2023-05-10T02:29:48.893Z,55.45
2023-05-10T02:32:18.912Z,55.96
2023-05-10T02:34:52.993Z,54.92
2023-05-10T02:37:22.399Z,54.95
2023-05-10T02:39:54.751Z,54.66
2023-05-10T02:42:26.396Z,54.82
2023-05-10T02:44:58.318Z,55.38
2023-05-10T02:47:26.805Z,55.26
2023-05-10T02:49:55.006Z,55.40
2023-05-10T02:52:26.908Z,55.71
2023-05-10T02:55:00.615Z,55.28
2023-05-10T02:57:32.411Z,55.95
2023-05-10T03:00:01.262Z,56.02
2023-05-10T03:02:31.881Z,55.98
2023-05-10T03:05:00.173Z,56.44
2023-05-10T03:07:28.383Z,56.86
2023-05-10T03:09:57.857Z,56.10
2023-05-10T03:12:34.182Z,55.86
2023-05-10T03:15:09.443Z,55.82
2023-05-10T03:17:50.310Z,55.70
2023-05-10T03:20:24.635Z,55.19
2023-05-10T03:22:58.341Z,55.98
2023-05-10T03:25:28.506Z,55.62
2023-05-10T03:27:58.371Z,55.08
2023-05-10T03:30:27.058Z,55.66
2023-05-10T03:32:55.294Z,55.67
2023-05-10T03:35:23.367Z,55.62
2023-05-10T03:37:51.347Z,54.72
2023-05-10T03:40:19.507Z,54.39
2023-05-10T03:42:48.980Z,54.46
2023-05-10T03:45:17.200Z,53.69
2023-05-10T03:47:45.206Z,54.00
2023-05-10T03:50:13.230Z,54.55
2023-05-10T03:52:41.199Z,54.04
2023-05-10T03:55:09.709Z,53.76
2023-05-10T03:57:37.662Z,54.43
2023-05-10T04:00:08.361Z,53.81
2023-05-10T04:02:36.480Z,53.83
2023-05-10T04:05:04.736Z,52.88
2023-05-10T04:07:32.684Z,51.89
2023-05-10T04:10:00.657Z,51.59
2023-05-10T04:12:28.629Z,50.93
2023-05-10T04:14:56.616Z,50.73
2023-05-10T04:17:26.014Z,50.50
2023-05-10T04:19:55.825Z,49.76
2023-05-10T04:22:23.869Z,48.63
2023-05-10T04:24:51.898Z,48.51
2023-05-10T04:27:19.894Z,47.95
2023-05-10T04:29:47.899Z,47.52
2023-05-10T04:32:17.374Z,46.82
2023-05-10T04:34:46.840Z,46.70
2023-05-10T04:37:14.840Z,45.98
2023-05-10T04:39:42.925Z,45.36
2023-05-10T04:42:11.158Z,44.73
2023-05-10T04:44:41.875Z,44.74
2023-05-10T04:47:14.252Z,44.58
2023-05-10T04:49:42.287Z,44.35
2023-05-10T04:52:12.472Z,43.93
2023-05-10T04:54:40.489Z,43.85
2023-05-10T04:57:08.503Z,42.92
2023-05-10T04:59:38.279Z,42.79
2023-05-10T05:02:07.298Z,42.69
2023-05-10T05:04:35.341Z,43.29
2023-05-10T05:07:03.382Z,42.34
2023-05-10T05:09:33.278Z,42.23
2023-05-10T05:12:01.434Z,42.40
2023-05-10T05:14:29.424Z,42.66
2023-05-10T05:16:57.631Z,42.57
2023-05-10T05:19:25.693Z,43.14
2023-05-10T05:21:53.688Z,42.61
2023-05-10T05:24:21.710Z,43.30
2023-05-10T05:26:51.166Z,43.35
2023-05-10T05:29:19.196Z,42.79
2023-05-10T05:31:47.249Z,43.02
2023-05-10T05:34:15.239Z,43.16
2023-05-10T05:36:43.286Z,42.86
2023-05-10T05:39:11.281Z,43.04
2023-05-10T05:41:39.260Z,43.92
2023-05-10T05:44:08.660Z,42.82
2023-05-10T05:46:36.657Z,42.07
2023-05-10T05:49:04.733Z,42.54
2023-05-10T05:51:33.307Z,42.13
2023-05-10T05:54:01.151Z,41.84
2023-05-10T05:56:29.168Z,43.09
2023-05-10T05:58:57.249Z,41.67
2023-05-10T06:01:26.662Z,42.02
2023-05-10T06:03:54.722Z,41.64
2023-05-10T06:06:22.716Z,41.05
2023-05-10T06:08:50.811Z,42.26
2023-05-10T06:11:18.862Z,41.62
2023-05-10T06:13:47.253Z,42.99
2023-05-10T06:16:15.518Z,41.54
2023-05-10T06:18:44.980Z,41.82
2023-05-10T06:21:12.973Z,41.11
2023-05-10T06:23:40.982Z,40.75
2023-05-10T06:26:08.982Z,41.59
2023-05-10T06:28:39.345Z,41.76
2023-05-10T06:31:07.783Z,41.58
2023-05-10T06:33:36.324Z,40.65
2023-05-10T06:36:06.054Z,40.60
2023-05-10T06:38:34.427Z,41.40
2023-05-10T06:41:02.638Z,40.47
2023-05-10T06:43:30.781Z,40.57
2023-05-10T06:45:58.888Z,40.86
2023-05-10T06:48:26.918Z,40.04
2023-05-10T06:50:54.901Z,39.66
2023-05-10T06:53:24.256Z,39.65
2023-05-10T06:55:52.565Z,39.20
2023-05-10T06:58:20.561Z,39.36
2023-05-10T07:00:48.590Z,38.97
2023-05-10T07:03:16.967Z,38.87
2023-05-10T07:05:45.073Z,39.23
2023-05-10T07:08:14.434Z,38.72
2023-05-10T07:10:43.986Z,38.72
2023-05-10T07:13:12.143Z,38.40
2023-05-10T07:15:40.215Z,38.25
2023-05-10T07:18:08.370Z,38.41
2023-05-10T07:20:36.551Z,38.23
2023-05-10T07:23:04.553Z,38.04
2023-05-10T07:25:32.540Z,37.77
2023-05-10T07:28:01.961Z,37.91
2023-05-10T07:30:30.015Z,37.66
2023-05-10T07:32:58.103Z,37.25
2023-05-10T07:35:26.184Z,37.46
2023-05-10T07:37:54.152Z,37.54
2023-05-10T07:40:22.300Z,37.66
2023-05-10T07:42:50.323Z,37.86
2023-05-10T07:45:20.311Z,37.65
2023-05-10T07:47:48.349Z,37.84
2023-05-10T07:50:16.521Z,38.13
2023-05-10T07:52:44.546Z,37.80
2023-05-10T07:55:12.767Z,38.80
2023-05-10T07:57:41.104Z,38.38
2023-05-10T08:00:10.070Z,37.10
2023-05-10T08:02:39.588Z,37.18
2023-05-10T08:05:08.518Z,35.35
2023-05-10T08:07:36.646Z,35.29
2023-05-10T08:10:04.852Z,34.71
2023-05-10T08:12:32.944Z,34.88
2023-05-10T08:15:01.111Z,33.33
2023-05-10T08:17:29.141Z,34.36
2023-05-10T08:19:58.596Z,33.83
2023-05-10T08:22:27.137Z,33.25
2023-05-10T08:24:55.103Z,32.69
2023-05-10T08:27:23.084Z,32.60
2023-05-10T08:29:51.134Z,32.51
2023-05-10T08:32:19.602Z,32.53
2023-05-10T08:34:47.622Z,31.85
2023-05-10T08:37:17.566Z,32.79
2023-05-10T08:39:46.855Z,31.63
2023-05-10T08:42:18.962Z,32.04
2023-05-10T08:44:50.643Z,32.09
2023-05-10T08:47:20.442Z,32.20
2023-05-10T08:49:52.087Z,31.43
2023-05-10T08:52:22.454Z,31.96
2023-05-10T08:54:50.953Z,30.80
2023-05-10T08:57:19.435Z,29.97
2023-05-10T08:59:47.192Z,31.19
2023-05-10T09:02:18.591Z,28.83
2023-05-10T09:04:46.951Z,30.45
2023-05-10T09:07:15.160Z,30.23
2023-05-10T09:09:44.970Z,29.87
2023-05-10T09:12:13.294Z,30.38
2023-05-10T09:14:42.149Z,29.45
2023-05-10T09:17:10.384Z,29.57
2023-05-10T09:19:38.445Z,28.37
2023-05-10T09:22:06.454Z,28.04
2023-05-10T09:24:34.453Z,27.78
2023-05-10T09:27:04.025Z,28.57
2023-05-10T09:29:41.703Z,28.04
2023-05-10T09:32:09.863Z,28.71
2023-05-10T09:34:44.199Z,26.86
2023-05-10T09:37:12.697Z,26.63
2023-05-10T09:39:42.451Z,27.00
2023-05-10T09:42:12.625Z,26.78
2023-05-10T09:44:41.991Z,27.33
2023-05-10T09:47:10.342Z,25.64
2023-05-10T09:49:38.116Z,26.24
2023-05-10T09:52:07.730Z,25.22
2023-05-10T09:54:37.171Z,26.96
2023-05-10T09:57:06.365Z,26.29
2023-05-10T09:59:36.573Z,25.93
2023-05-10T10:02:05.305Z,26.23
2023-05-10T10:04:33.883Z,25.27
2023-05-10T10:07:03.964Z,24.82
2023-05-10T10:09:32.800Z,25.97
2023-05-10T10:12:01.723Z,25.86
2023-05-10T10:14:30.596Z,25.63
2023-05-10T10:17:07.407Z,25.55
2023-05-10T10:19:38.062Z,24.86
2023-05-10T10:22:06.709Z,24.06
2023-05-10T10:24:35.017Z,24.34
2023-05-10T10:27:11.371Z,24.36
2023-05-10T10:29:46.679Z,24.21
2023-05-10T10:32:27.755Z,24.50
2023-05-10T10:34:57.387Z,23.86
2023-05-10T10:37:26.242Z,24.09
2023-05-10T10:39:54.235Z,24.31
2023-05-10T10:42:47.022Z,23.93
2023-05-10T10:45:15.247Z,23.51
2023-05-10T10:47:45.290Z,23.87
2023-05-10T10:50:14.059Z,23.92
2023-05-10T10:52:42.993Z,23.90
2023-05-10T10:55:12.890Z,24.10
2023-05-10T10:57:52.764Z,23.98
2023-05-10T11:00:26.398Z,23.20
2023-05-10T11:02:58.586Z,24.91
2023-05-10T11:08:21.175Z,25.13
2023-05-10T11:11:07.865Z,25.35
2023-05-10T11:13:36.326Z,25.91
2023-05-10T11:16:19.265Z,25.13
2023-05-10T11:19:01.040Z,25.58
2023-05-10T11:21:29.289Z,25.89
2023-05-10T11:23:58.684Z,25.40
2023-05-10T11:26:27.469Z,25.07
2023-05-10T11:29:00.229Z,23.99
2023-05-10T11:31:28.864Z,24.87
2023-05-10T11:34:00.156Z,23.82
2023-05-10T11:36:29.881Z,23.78
2023-05-10T11:38:58.547Z,22.94
2023-05-10T11:41:27.392Z,22.98
2023-05-10T11:43:56.488Z,23.12
2023-05-10T11:46:27.037Z,23.09
2023-05-10T11:48:56.856Z,22.44
2023-05-10T11:51:27.231Z,23.32
2023-05-10T11:53:56.572Z,23.38
2023-05-10T11:56:27.382Z,22.49
2023-05-10T11:58:57.654Z,22.45
2023-05-10T12:01:26.527Z,22.32
2023-05-10T12:03:56.800Z,22.39
2023-05-10T12:06:29.131Z,22.04
2023-05-10T12:08:57.160Z,21.38
2023-05-10T12:11:28.330Z,21.87
2023-05-10T12:13:57.604Z,22.05
2023-05-10T12:16:27.656Z,21.95
2023-05-10T12:18:58.403Z,21.57
2023-05-10T12:21:29.800Z,21.59
2023-05-10T12:24:03.354Z,20.86
2023-05-10T12:26:31.823Z,21.49
2023-05-10T12:29:14.744Z,21.43
2023-05-10T12:31:52.654Z,21.99
2023-05-10T12:34:27.967Z,20.67
2023-05-10T12:36:57.713Z,20.91
2023-05-10T12:39:26.035Z,20.93
2023-05-10T12:41:54.031Z,21.07
2023-05-10T12:44:22.101Z,20.92
2023-05-10T12:46:50.256Z,20.42
2023-05-10T12:49:20.033Z,20.18
2023-05-10T12:51:48.048Z,20.32
2023-05-10T12:54:17.538Z,20.57
2023-05-10T12:56:45.560Z,20.00
2023-05-10T12:59:13.568Z,20.32
2023-05-10T13:01:41.660Z,19.99
2023-05-10T13:04:09.725Z,19.84
2023-05-10T13:06:37.792Z,20.15
2023-05-10T13:09:05.851Z,19.87
2023-05-10T13:11:35.370Z,20.03
2023-05-10T13:14:04.284Z,19.77
2023-05-10T13:16:32.464Z,20.22
2023-05-10T13:19:00.365Z,19.58
2023-05-10T13:21:28.997Z,20.13
2023-05-10T13:23:57.018Z,20.00
2023-05-10T13:26:24.991Z,19.56
2023-05-10T13:28:56.704Z,20.10
2023-05-10T13:31:24.851Z,19.52
2023-05-10T13:33:53.076Z,19.95
2023-05-10T13:36:21.141Z,20.39
2023-05-10T13:38:49.172Z,20.16
2023-05-10T13:41:17.293Z,19.45
2023-05-10T13:43:45.339Z,19.30
2023-05-10T13:46:14.938Z,19.27
2023-05-10T13:48:42.935Z,19.45
2023-05-10T13:51:10.957Z,20.13
2023-05-10T13:53:38.943Z,19.33
2023-05-10T13:56:08.525Z,20.11
2023-05-10T13:58:37.575Z,20.42
2023-05-10T14:01:05.890Z,20.24
2023-05-10T14:03:35.369Z,19.83
2023-05-10T14:06:03.707Z,19.19
2023-05-10T14:08:31.740Z,17.72
2023-05-10T14:10:59.788Z,16.26
2023-05-10T14:13:27.543Z,14.91
2023-05-10T14:15:56.030Z,14.27
2023-05-10T14:18:24.186Z,13.35
2023-05-10T14:20:53.594Z,12.55
2023-05-10T14:23:25.116Z,11.65
2023-05-10T14:25:53.290Z,10.95
2023-05-10T14:28:21.950Z,10.22
2023-05-10T14:30:50.306Z,10.14
2023-05-10T14:33:19.333Z,10.56
2023-05-10T14:35:47.811Z,9.87
2023-05-10T14:38:17.459Z,9.54
2023-05-10T14:40:45.465Z,9.04
2023-05-10T14:43:13.506Z,8.53
2023-05-10T14:45:41.543Z,8.14
2023-05-10T14:48:13.204Z,8.18
2023-05-10T14:50:41.195Z,7.94
2023-05-10T14:53:09.373Z,7.93
2023-05-10T14:55:39.387Z,7.57
2023-05-10T14:58:07.514Z,8.05
2023-05-10T15:00:35.584Z,7.36
2023-05-10T15:03:04.650Z,7.28
2023-05-10T15:05:33.118Z,7.08
2023-05-10T15:08:01.443Z,6.73
2023-05-10T15:10:29.423Z,6.66
2023-05-10T15:12:58.879Z,7.39
2023-05-10T15:15:26.916Z,6.95
2023-05-10T15:17:54.927Z,7.26
2023-05-10T15:20:22.957Z,7.74
2023-05-10T15:22:50.960Z,7.34
2023-05-10T15:25:19.391Z,8.00
2023-05-10T15:27:47.584Z,7.88
2023-05-10T15:30:17.096Z,7.60
2023-05-10T15:32:45.140Z,7.95
2023-05-10T15:35:13.487Z,7.76
2023-05-10T15:37:41.575Z,7.90
2023-05-10T15:40:10.339Z,7.87
2023-05-10T15:42:38.324Z,7.75
2023-05-10T15:45:07.255Z,7.77
2023-05-10T15:47:36.636Z,8.08
2023-05-10T15:50:04.865Z,8.12
2023-05-10T15:52:32.847Z,8.19
2023-05-10T15:55:00.814Z,8.19
2023-05-10T15:57:28.838Z,8.06
2023-05-10T15:59:57.074Z,7.84
2023-05-10T16:02:25.184Z,7.88
2023-05-10T16:04:54.650Z,8.14
2023-05-10T16:07:22.638Z,8.31
2023-05-10T16:09:50.856Z,9.05
2023-05-10T16:12:18.907Z,9.88
2023-05-10T16:14:47.054Z,9.98
2023-05-10T16:17:15.859Z,11.13
2023-05-10T16:19:43.935Z,12.06
2023-05-10T16:22:13.416Z,13.41
2023-05-10T16:24:42.469Z,14.15
2023-05-10T16:27:10.746Z,15.49
2023-05-10T16:29:38.766Z,16.54
2023-05-10T16:32:07.128Z,17.27
2023-05-10T16:34:35.192Z,17.69
2023-05-10T16:37:03.034Z,17.67
2023-05-10T16:39:32.433Z,18.17
2023-05-10T16:42:01.190Z,17.84
2023-05-10T16:44:29.220Z,17.38
2023-05-10T16:46:57.233Z,17.62
2023-05-10T16:49:26.548Z,18.61
2023-05-10T16:51:54.582Z,19.10
2023-05-10T16:54:22.899Z,19.68
2023-05-10T16:56:52.213Z,19.36
2023-05-10T16:59:20.192Z,19.83
2023-05-10T17:01:48.328Z,20.05
2023-05-10T17:04:16.572Z,20.46
2023-05-10T17:06:44.604Z,20.53
2023-05-10T17:09:12.634Z,20.72
2023-05-10T17:11:40.619Z,20.89
2023-05-10T17:14:10.261Z,21.04
2023-05-10T17:16:38.341Z,20.96
2023-05-10T17:19:06.385Z,21.57
2023-05-10T17:21:34.360Z,21.37
2023-05-10T17:24:02.326Z,21.51
2023-05-10T17:26:30.356Z,21.85
2023-05-10T17:28:58.429Z,22.00
2023-05-10T17:31:28.739Z,22.17
2023-05-10T17:33:56.732Z,22.47
2023-05-10T17:36:24.793Z,22.52
2023-05-10T17:38:52.831Z,22.42
2023-05-10T17:41:21.850Z,22.43
2023-05-10T17:43:49.906Z,22.93
2023-05-10T17:46:20.397Z,22.81
2023-05-10T17:48:50.725Z,22.83
2023-05-10T17:51:18.740Z,22.54
2023-05-10T17:53:46.774Z,22.80
2023-05-10T17:56:14.732Z,22.80
2023-05-10T17:58:48.636Z,22.82
2023-05-10T18:01:16.740Z,22.85
2023-05-10T18:03:44.752Z,22.97
2023-05-10T18:06:15.131Z,22.61
2023-05-10T18:08:43.150Z,22.08
2023-05-10T18:11:11.180Z,22.49
2023-05-10T18:13:39.522Z,21.89
2023-05-10T18:16:08.910Z,20.72
2023-05-10T18:18:36.951Z,20.34
2023-05-10T18:21:05.279Z,20.41
2023-05-10T18:23:34.426Z,20.78
2023-05-10T18:26:03.585Z,21.46
2023-05-10T18:28:31.574Z,22.01
2023-05-10T18:30:59.646Z,22.11
2023-05-10T18:33:27.785Z,22.38
2023-05-10T18:35:55.868Z,22.96
2023-05-10T18:38:23.952Z,23.30
2023-05-10T18:40:53.337Z,23.47
2023-05-10T18:43:21.443Z,23.64
2023-05-10T18:45:51.086Z,23.89
2023-05-10T18:48:19.443Z,24.22
2023-05-10T18:50:47.510Z,24.07
2023-05-10T18:53:15.478Z,24.50
2023-05-10T18:55:44.239Z,24.41
2023-05-10T18:58:14.212Z,24.90
2023-05-10T19:00:42.263Z,25.12
2023-05-10T19:03:10.531Z,24.86
2023-05-10T19:05:38.536Z,25.25
2023-05-10T19:08:08.499Z,25.48
2023-05-10T19:10:36.509Z,25.49
2023-05-10T19:13:04.506Z,25.47
2023-05-10T19:15:34.028Z,25.47
2023-05-10T19:18:04.228Z,26.40
2023-05-10T19:20:32.457Z,26.24
2023-05-10T19:23:09.595Z,26.79
2023-05-10T19:25:39.486Z,26.75
2023-05-10T19:28:09.667Z,27.10
2023-05-10T19:30:39.347Z,27.32
2023-05-10T19:33:07.442Z,27.46
2023-05-10T19:35:35.502Z,27.53
2023-05-10T19:38:03.487Z,27.70
2023-05-10T19:40:31.756Z,28.19
2023-05-10T19:43:00.556Z,27.77
2023-05-10T19:45:28.568Z,28.48
2023-05-10T19:47:58.012Z,28.48
2023-05-10T19:50:26.361Z,28.77
2023-05-10T19:52:54.315Z,28.82
2023-05-10T19:55:30.072Z,29.34
2023-05-10T19:58:00.548Z,29.41
2023-05-10T20:00:28.904Z,29.92
2023-05-10T20:02:58.509Z,29.85
2023-05-10T20:05:26.562Z,30.43
2023-05-10T20:07:54.758Z,30.69
2023-05-10T20:10:24.650Z,30.81
2023-05-10T20:12:54.403Z,31.21
2023-05-10T20:15:24.174Z,31.74
2023-05-10T20:17:53.833Z,32.03
2023-05-10T20:20:25.125Z,32.69
2023-05-10T20:22:53.072Z,32.81
2023-05-10T20:25:21.068Z,33.32
2023-05-10T20:27:50.953Z,33.44
2023-05-10T20:30:19.239Z,33.83
2023-05-10T20:32:47.454Z,33.65
2023-05-10T20:35:15.485Z,34.01
2023-05-10T20:37:44.876Z,34.45
2023-05-10T20:40:13.679Z,34.31
2023-05-10T20:42:41.803Z,34.86
2023-05-10T20:45:11.067Z,34.65
2023-05-10T20:47:39.112Z,35.28
2023-05-10T20:50:08.412Z,35.13
2023-05-10T20:52:36.448Z,35.73
2023-05-10T20:55:06.773Z,35.46
2023-05-10T20:57:34.776Z,35.66
2023-05-10T21:00:02.951Z,35.56
2023-05-10T21:02:30.957Z,35.79
2023-05-10T21:04:59.064Z,35.92
2023-05-10T21:07:27.127Z,35.80
2023-05-10T21:09:55.091Z,36.21
2023-05-10T21:12:24.542Z,35.82
2023-05-10T21:14:52.548Z,36.41
2023-05-10T21:17:20.526Z,36.52
2023-05-10T21:19:48.521Z,37.51
2023-05-10T21:22:16.591Z,36.95
2023-05-10T21:24:45.024Z,37.82
2023-05-10T21:27:13.114Z,36.76
2023-05-10T21:29:42.492Z,37.02
2023-05-10T21:32:10.694Z,37.84
2023-05-10T21:34:38.738Z,38.04
2023-05-10T21:37:06.874Z,38.34
2023-05-10T21:39:35.018Z,38.03
2023-05-10T21:42:03.764Z,38.42
2023-05-10T21:44:33.134Z,39.17
2023-05-10T21:47:02.569Z,39.07
2023-05-10T21:49:30.561Z,38.90
2023-05-10T21:51:58.529Z,38.52
2023-05-10T21:54:26.586Z,39.37
2023-05-10T21:56:54.605Z,39.71
2023-05-10T21:59:22.589Z,40.01
2023-05-10T22:01:50.648Z,39.72
2023-05-10T22:04:20.105Z,39.72
2023-05-10T22:06:49.151Z,40.70
2023-05-10T22:09:17.123Z,40.82
2023-05-10T22:11:45.118Z,40.97
2023-05-10T22:14:13.140Z,41.29
2023-05-10T22:16:41.235Z,41.25
2023-05-10T22:19:09.358Z,41.65
2023-05-10T22:21:38.792Z,41.04
2023-05-10T22:24:07.096Z,41.46
2023-05-10T22:26:35.104Z,42.06
2023-05-10T22:29:04.307Z,41.96
2023-05-10T22:31:32.540Z,41.92
2023-05-10T22:34:00.632Z,41.95
2023-05-10T22:36:29.148Z,41.96
2023-05-10T22:38:58.889Z,42.40
2023-05-10T22:41:26.904Z,42.51
2023-05-10T22:43:54.888Z,43.16
2023-05-10T22:46:22.936Z,43.37
2023-05-10T22:48:50.955Z,43.48
2023-05-10T22:51:18.925Z,43.35
2023-05-10T22:53:46.900Z,43.67
2023-05-10T22:56:16.286Z,43.83
2023-05-10T22:58:44.444Z,43.82
2023-05-10T23:01:12.484Z,44.42
2023-05-10T23:03:40.594Z,44.10
2023-05-10T23:06:08.711Z,44.26
2023-05-10T23:08:36.679Z,44.57
2023-05-10T23:11:04.718Z,45.23
2023-05-10T23:13:34.164Z,45.10
2023-05-10T23:16:07.226Z,45.38
2023-05-10T23:18:35.389Z,45.35
2023-05-10T23:21:03.753Z,46.02
2023-05-10T23:23:32.814Z,45.83
2023-05-10T23:26:00.854Z,45.92
2023-05-10T23:28:28.938Z,46.34
2023-05-10T23:30:59.568Z,46.47
2023-05-10T23:33:27.859Z,46.31
2023-05-10T23:35:55.929Z,46.60
2023-05-10T23:38:23.928Z,46.97
2023-05-10T23:40:52.361Z,47.37
2023-05-10T23:43:21.782Z,47.18
2023-05-10T23:45:56.285Z,46.74
2023-05-10T23:48:26.127Z,47.47
2023-05-10T23:50:54.341Z,47.91
2023-05-10T23:53:22.383Z,47.58
2023-05-10T23:55:50.368Z,47.71
2023-05-10T23:58:18.336Z,48.53
